createdAt,value
2017-08-25T00:00:15.522Z,76.56
2017-08-25T00:00:56.094Z,76.65
2017-08-25T00:01:36.484Z,76.56
2017-08-25T00:02:17.033Z,77.13
2017-08-25T00:02:57.282Z,77.04
2017-08-25T00:03:37.735Z,76.65
2017-08-25T00:04:18.164Z,76.94
2017-08-25T00:04:58.550Z,76.65
2017-08-25T00:05:39.008Z,77.42
2017-08-25T00:06:19.416Z,77.42
2017-08-25T00:07:00.004Z,77.04
2017-08-25T00:07:40.495Z,76.94
2017-08-25T00:08:20.861Z,77.51
2017-08-25T00:09:01.244Z,77.42
2017-08-25T00:09:41.716Z,77.8
2017-08-25T00:18:00.647Z,77.19
2017-08-25T00:23:57.253Z,78
2017-08-25T00:24:55.611Z,78
2017-08-25T00:25:54.134Z,77.95
2017-08-25T00:26:54.100Z,77.95
2017-08-25T00:27:53.417Z,77.61
2017-08-25T00:28:50.180Z,77.58
2017-08-25T00:29:47.293Z,77.67
2017-08-25T00:30:42.291Z,77.86
2017-08-25T00:31:37.867Z,78.15
2017-08-25T00:32:33.878Z,78.25
2017-08-25T00:33:32.577Z,78.34
2017-08-25T00:34:27.917Z,78.34
2017-08-25T00:35:23.303Z,78.25
2017-08-25T00:36:17.543Z,78.05
2017-08-25T00:37:14.354Z,78.82
2017-08-25T00:38:12.574Z,78.44
2017-08-25T00:39:09.059Z,78.44
2017-08-25T00:40:06.537Z,78.44
2017-08-25T00:41:03.938Z,78.63
2017-08-25T00:42:00.183Z,78.53
2017-08-25T00:42:57.441Z,78.25
2017-08-25T00:43:58.657Z,78.44
2017-08-25T00:44:55.532Z,78.63
2017-08-25T00:45:53.540Z,78.53
2017-08-25T00:46:51.857Z,78.53
2017-08-25T00:47:52.583Z,78.34
2017-08-25T00:48:53.412Z,78.53
2017-08-25T00:49:54.902Z,78.34
2017-08-25T00:51:00.889Z,78.63
2017-08-25T00:52:00.241Z,78.82
2017-08-25T00:52:59.440Z,78.72
2017-08-25T00:54:00.264Z,79.11
2017-08-25T00:55:03.727Z,79.11
2017-08-25T00:56:01.437Z,79.11
2017-08-25T00:57:00.789Z,78.72
2017-08-25T00:58:01.063Z,79.21
2017-08-25T00:59:03.787Z,79.11
2017-08-25T00:59:59.754Z,78.82
2017-08-25T01:01:00.301Z,79.21
2017-08-25T01:01:59.503Z,79.01
2017-08-25T01:03:00.437Z,79.21
2017-08-25T01:04:00.380Z,79.68
2017-08-25T01:05:01.720Z,78.69
2017-08-25T01:06:00.086Z,78.97
2017-08-25T01:07:04.278Z,78.88
2017-08-25T01:08:03.762Z,78.97
2017-08-25T01:08:59.550Z,79.07
2017-08-25T01:10:00.251Z,79.55
2017-08-25T01:10:59.966Z,79.64
2017-08-25T01:11:57.457Z,79.55
2017-08-25T01:13:00.511Z,79.74
2017-08-25T01:13:59.823Z,79.74
2017-08-25T01:14:57.742Z,79.64
2017-08-25T01:16:01.889Z,80.03
2017-08-25T01:17:03.128Z,80.22
2017-08-25T01:18:05.257Z,80.03
2017-08-25T01:19:05.832Z,80.12
2017-08-25T01:20:04.701Z,80.22
2017-08-25T01:21:06.056Z,80.12
2017-08-25T01:22:08.183Z,79.93
2017-08-25T01:23:02.209Z,80.41
2017-08-25T01:24:01.956Z,79.99
2017-08-25T01:25:03.016Z,79.89
2017-08-25T01:26:03.259Z,80.7
2017-08-25T01:27:03.799Z,80.85
2017-08-25T01:28:05.429Z,80.66
2017-08-25T01:29:10.349Z,80.66
2017-08-25T01:30:09.775Z,81.04
2017-08-25T01:31:08.254Z,80.66
2017-08-25T01:33:34.253Z,81.23
2017-08-25T01:34:14.803Z,81.23
2017-08-25T01:34:55.204Z,81.43
2017-08-25T01:35:35.627Z,81.33
2017-08-25T01:36:16.096Z,80.94
2017-08-25T01:36:56.565Z,81.33
2017-08-25T01:37:36.945Z,81.04
2017-08-25T01:38:17.461Z,81.23
2017-08-25T01:38:57.883Z,81.52
2017-08-25T01:39:38.466Z,81.33
2017-08-25T01:40:19.014Z,81.52
2017-08-25T01:40:59.364Z,81.62
2017-08-25T01:41:39.786Z,81.9
2017-08-25T01:42:20.173Z,82
2017-08-25T01:43:00.783Z,81.81
2017-08-25T01:43:41.228Z,81.81
2017-08-25T01:44:21.571Z,81.81
2017-08-25T01:45:02.145Z,82.29
2017-08-25T01:45:42.601Z,81.33
2017-08-25T01:46:23.124Z,81.71
2017-08-25T01:47:03.779Z,81.33
2017-08-25T01:47:44.157Z,81.52
2017-08-25T01:48:24.572Z,81.33
2017-08-25T01:49:04.921Z,81.62
2017-08-25T01:49:45.408Z,80.85
2017-08-25T01:50:26.038Z,81.33
2017-08-25T01:51:06.334Z,81.33
2017-08-25T01:51:46.912Z,81.23
2017-08-25T01:52:27.479Z,81.52
2017-08-25T01:53:08.035Z,81.33
2017-08-25T01:53:48.469Z,80.85
2017-08-25T01:54:28.819Z,80.76
2017-08-25T01:55:09.195Z,80.66
2017-08-25T01:55:49.861Z,80.76
2017-08-25T01:56:30.288Z,80.76
2017-08-25T01:57:10.790Z,81.13
2017-08-25T01:57:51.148Z,81.04
2017-08-25T01:58:31.777Z,80.56
2017-08-25T01:59:12.307Z,81.13
2017-08-25T01:59:52.795Z,80.85
2017-08-25T02:00:33.165Z,81.13
2017-08-25T02:01:13.656Z,80.47
2017-08-25T02:01:53.968Z,80.66
2017-08-25T02:02:34.434Z,80.85
2017-08-25T02:03:14.926Z,80.85
2017-08-25T02:03:55.201Z,81.33
2017-08-25T02:04:35.586Z,81.13
2017-08-25T02:05:16.078Z,81.23
2017-08-25T02:05:56.452Z,80.47
2017-08-25T02:06:36.795Z,80.94
2017-08-25T02:07:17.434Z,81.13
2017-08-25T02:07:57.899Z,80.85
2017-08-25T02:08:38.236Z,81.43
2017-08-25T02:09:18.671Z,81.62
2017-08-25T02:09:59.099Z,81.62
2017-08-25T02:10:39.604Z,81.62
2017-08-25T02:11:20.053Z,82.67
2017-08-25T02:12:00.698Z,82.67
2017-08-25T02:12:41.017Z,82.92
2017-08-25T02:13:21.465Z,82.92
2017-08-25T02:14:01.851Z,82.82
2017-08-25T02:14:42.400Z,83.2
2017-08-25T02:15:22.906Z,83.49
2017-08-25T02:16:03.389Z,83.11
2017-08-25T02:16:43.715Z,83.39
2017-08-25T02:17:24.200Z,83.49
2017-08-25T02:18:04.793Z,83.39
2017-08-25T02:18:45.162Z,83.11
2017-08-25T02:19:25.701Z,83.3
2017-08-25T02:20:06.030Z,83.2
2017-08-25T02:20:47.259Z,83.3
2017-08-25T02:21:27.691Z,83.39
2017-08-25T02:22:08.123Z,83.59
2017-08-25T02:22:48.553Z,83.11
2017-08-25T02:23:28.911Z,82.73
2017-08-25T02:24:09.346Z,83.01
2017-08-25T02:24:49.834Z,83.49
2017-08-25T02:25:30.214Z,82.92
2017-08-25T02:26:10.733Z,83.11
2017-08-25T02:26:51.141Z,82.92
2017-08-25T02:27:31.913Z,82.92
2017-08-25T02:28:12.377Z,82.92
2017-08-25T02:28:52.897Z,83.01
2017-08-25T02:29:33.395Z,82.92
2017-08-25T02:30:14.008Z,82.92
2017-08-25T02:30:54.303Z,82.82
2017-08-25T02:31:34.852Z,83.11
2017-08-25T02:32:15.375Z,82.73
2017-08-25T02:32:55.874Z,83.39
2017-08-25T02:33:36.337Z,83.11
2017-08-25T02:34:16.775Z,83.59
2017-08-25T02:46:27.376Z,84.35
2017-08-25T02:47:22.053Z,84.16
2017-08-25T02:48:16.310Z,83.83
2017-08-25T02:49:13.387Z,84.64
2017-08-25T02:50:11.673Z,84.16
2017-08-25T02:51:08.330Z,84.02
2017-08-25T02:52:02.424Z,84.74
2017-08-25T02:52:58.818Z,84.26
2017-08-25T02:53:53.282Z,84.31
2017-08-25T02:54:48.983Z,84.12
2017-08-25T02:55:47.029Z,84.22
2017-08-25T02:56:47.737Z,84.31
2017-08-25T02:57:49.096Z,84.59
2017-08-25T02:58:46.788Z,84.16
2017-08-25T02:59:45.611Z,84.45
2017-08-25T03:02:24.442Z,84.35
2017-08-25T03:03:04.827Z,84.45
2017-08-25T03:03:45.187Z,83.49
2017-08-25T03:04:25.566Z,83.49
2017-08-25T03:05:06.032Z,83.59
2017-08-25T03:05:46.887Z,83.78
2017-08-25T03:06:27.190Z,84.06
2017-08-25T03:07:07.681Z,84.06
2017-08-25T03:07:48.065Z,84.02
2017-08-25T03:08:28.522Z,84.12
2017-08-25T03:09:09.081Z,84.12
2017-08-25T03:09:49.301Z,84.16
2017-08-25T03:10:29.768Z,84.02
2017-08-25T03:11:10.258Z,84.41
2017-08-25T03:11:50.615Z,84.02
2017-08-25T03:12:30.986Z,84.26
2017-08-25T03:13:11.450Z,83.54
2017-08-25T03:13:51.875Z,84.31
2017-08-25T03:14:32.335Z,84.31
2017-08-25T03:15:12.744Z,84.5
2017-08-25T03:15:53.232Z,84.88
2017-08-25T03:16:33.689Z,85.17
2017-08-25T03:17:14.020Z,84.41
2017-08-25T03:17:54.617Z,84.26
2017-08-25T03:18:35.167Z,84.31
2017-08-25T03:19:15.603Z,84.31
2017-08-25T03:19:56.067Z,84.31
2017-08-25T03:20:36.575Z,84.35
2017-08-25T03:21:16.884Z,83.87
2017-08-25T03:21:57.280Z,84.35
2017-08-25T03:22:37.777Z,84.02
2017-08-25T03:23:18.089Z,84.02
2017-08-25T03:23:58.601Z,83.93
2017-08-25T03:24:39.069Z,83.73
2017-08-25T03:25:19.411Z,83.83
2017-08-25T03:25:59.794Z,84.74
2017-08-25T03:26:40.174Z,84.06
2017-08-25T03:27:20.672Z,83.78
2017-08-25T03:28:01.081Z,83.49
2017-08-25T03:28:41.424Z,83.3
2017-08-25T03:29:21.836Z,84.06
2017-08-25T03:30:02.320Z,83.2
2017-08-25T03:30:42.855Z,83.59
2017-08-25T03:31:23.236Z,83.39
2017-08-25T03:32:03.769Z,84.31
2017-08-25T03:32:44.205Z,84.12
2017-08-25T03:33:24.447Z,84.31
2017-08-25T03:34:04.968Z,84.02
2017-08-25T03:34:45.300Z,84.02
2017-08-25T03:35:25.704Z,84.41
2017-08-25T03:36:06.188Z,84.12
2017-08-25T03:36:46.654Z,84.59
2017-08-25T03:37:27.046Z,85.36
2017-08-25T03:38:07.380Z,85.08
2017-08-25T03:38:47.823Z,85.08
2017-08-25T03:39:28.285Z,84.79
2017-08-25T03:40:08.772Z,84.98
2017-08-25T03:40:49.192Z,85.55
2017-08-25T03:41:29.681Z,85.36
2017-08-25T03:42:10.148Z,85.46
2017-08-25T03:42:50.459Z,85.27
2017-08-25T03:43:30.837Z,85.46
2017-08-25T03:44:11.338Z,85.65
2017-08-25T03:44:51.663Z,85.46
2017-08-25T03:45:32.045Z,85.55
2017-08-25T03:46:13.274Z,85.55
2017-08-25T03:46:53.675Z,85.36
2017-08-25T03:47:34.143Z,85.27
2017-08-25T03:48:14.534Z,85.08
2017-08-25T03:48:54.924Z,85.08
2017-08-25T03:49:35.339Z,85.27
2017-08-25T03:50:15.742Z,85.08
2017-08-25T03:50:56.213Z,85.08
2017-08-25T03:51:36.524Z,84.98
2017-08-25T03:52:16.961Z,85.27
2017-08-25T03:52:57.404Z,84.88
2017-08-25T03:53:37.879Z,85.08
2017-08-25T03:54:18.167Z,84.88
2017-08-25T03:54:58.614Z,84.98
2017-08-25T03:55:39.051Z,84.98
2017-08-25T03:56:19.412Z,85.27
2017-08-25T03:56:59.905Z,85.27
2017-08-25T03:57:40.316Z,85.36
2017-08-25T03:58:20.813Z,85.36
2017-08-25T03:59:01.246Z,84.88
2017-08-25T03:59:41.741Z,84.88
2017-08-25T04:00:22.145Z,85.36
2017-08-25T04:01:02.472Z,84.88
2017-08-25T04:01:42.977Z,85.17
2017-08-25T04:02:23.347Z,85.08
2017-08-25T04:03:03.825Z,85.55
2017-08-25T04:03:44.417Z,85.55
2017-08-25T04:04:24.753Z,85.36
2017-08-25T04:05:05.217Z,85.36
2017-08-25T04:05:45.743Z,85.46
2017-08-25T04:06:26.125Z,85.75
2017-08-25T04:07:06.658Z,85.27
2017-08-25T04:07:47.170Z,85.84
2017-08-25T04:08:27.683Z,85.65
2017-08-25T04:09:08.093Z,85.27
2017-08-25T04:09:48.607Z,85.55
2017-08-25T04:10:28.976Z,85.36
2017-08-25T04:11:09.406Z,85.27
2017-08-25T04:11:49.811Z,85.46
2017-08-25T04:12:30.251Z,85.46
2017-08-25T04:13:10.674Z,85.55
2017-08-25T04:13:50.995Z,85.36
2017-08-25T04:14:31.456Z,85.46
2017-08-25T04:15:11.945Z,85.46
2017-08-25T04:15:52.345Z,85.55
2017-08-25T04:16:32.768Z,85.08
2017-08-25T04:17:13.130Z,85.36
2017-08-25T04:17:53.609Z,85.36
2017-08-25T04:18:34.049Z,85.36
2017-08-25T04:19:14.524Z,85.08
2017-08-25T04:19:54.926Z,85.27
2017-08-25T04:20:35.304Z,84.98
2017-08-25T04:21:15.752Z,84.98
2017-08-25T04:21:56.173Z,84.98
2017-08-25T04:22:36.553Z,84.88
2017-08-25T04:23:17.094Z,85.08
2017-08-25T04:23:57.484Z,85.36
2017-08-25T04:24:37.887Z,85.17
2017-08-25T04:25:18.252Z,84.88
2017-08-25T04:25:58.630Z,85.46
2017-08-25T04:26:39.114Z,85.17
2017-08-25T04:27:19.516Z,84.79
2017-08-25T04:28:00.087Z,85.46
2017-08-25T04:28:40.397Z,85.08
2017-08-25T04:29:20.921Z,85.27
2017-08-25T04:30:01.339Z,85.27
2017-08-25T04:30:41.785Z,85.36
2017-08-25T04:31:22.189Z,85.08
2017-08-25T04:32:02.703Z,85.65
2017-08-25T04:32:43.116Z,85.36
2017-08-25T04:33:23.687Z,84.98
2017-08-25T04:34:04.036Z,84.55
2017-08-25T04:34:44.448Z,84.64
2017-08-25T04:35:24.904Z,84.16
2017-08-25T04:36:05.326Z,84.35
2017-08-25T04:36:45.683Z,84.55
2017-08-25T04:37:26.030Z,84.59
2017-08-25T04:38:06.455Z,84.55
2017-08-25T04:38:46.920Z,84.31
2017-08-25T04:39:27.308Z,84.35
2017-08-25T04:40:07.812Z,84.55
2017-08-25T04:40:48.289Z,84.31
2017-08-25T04:41:28.777Z,84.45
2017-08-25T04:42:09.116Z,84.45
2017-08-25T04:42:49.583Z,84.41
2017-08-25T04:43:29.992Z,84.26
2017-08-25T04:44:10.318Z,84.64
2017-08-25T04:44:50.750Z,84.45
2017-08-25T04:45:31.153Z,84.59
2017-08-25T04:46:11.490Z,84.35
2017-08-25T04:46:52.124Z,84.5
2017-08-25T04:47:32.434Z,84.22
2017-08-25T04:48:12.966Z,84.64
2017-08-25T04:48:53.313Z,84.31
2017-08-25T04:49:33.849Z,84.5
2017-08-25T04:50:14.230Z,84.22
2017-08-25T04:50:54.717Z,84.26
2017-08-25T04:51:35.091Z,84.22
2017-08-25T04:52:15.381Z,84.59
2017-08-25T04:52:55.944Z,84.41
2017-08-25T04:53:36.301Z,84.59
2017-08-25T04:54:17.120Z,84.26
2017-08-25T04:54:59.822Z,84.22
2017-08-25T04:55:40.189Z,84.41
2017-08-25T04:56:20.610Z,84.35
2017-08-25T04:57:01.048Z,84.35
2017-08-25T04:57:41.470Z,84.45
2017-08-25T04:58:21.846Z,84.45
2017-08-25T04:59:02.233Z,84.55
2017-08-25T04:59:43.274Z,84.83
2017-08-25T05:00:27.744Z,84.74
2017-08-25T05:01:08.219Z,84.16
2017-08-25T05:01:48.548Z,84.35
2017-08-25T05:02:29.094Z,84.35
2017-08-25T05:03:09.610Z,84.26
2017-08-25T05:03:50.051Z,84.26
2017-08-25T05:04:30.449Z,83.78
2017-08-25T05:05:11.048Z,83.87
2017-08-25T05:05:51.387Z,83.68
2017-08-25T05:06:31.793Z,83.87
2017-08-25T05:07:12.252Z,83.87
2017-08-25T05:07:52.608Z,83.87
2017-08-25T05:08:33.418Z,83.87
2017-08-25T05:09:13.839Z,83.68
2017-08-25T05:09:54.150Z,83.68
2017-08-25T05:10:34.683Z,84.06
2017-08-25T05:11:16.006Z,83.97
2017-08-25T05:11:56.450Z,83.87
2017-08-25T05:12:37.994Z,83.87
2017-08-25T05:13:17.925Z,83.3
2017-08-25T05:13:58.349Z,84.06
2017-08-25T05:14:38.794Z,84.06
2017-08-25T05:15:19.153Z,83.01
2017-08-25T05:15:59.694Z,83.49
2017-08-25T05:16:40.166Z,83.01
2017-08-25T05:17:20.621Z,83.01
2017-08-25T05:18:01.135Z,82.63
2017-08-25T05:23:07.936Z,82.73
2017-08-25T05:24:16.221Z,82.73
2017-08-25T05:25:18.066Z,82.92
2017-08-25T05:26:19.912Z,82.38
2017-08-25T05:27:21.533Z,82.67
2017-08-25T05:28:25.645Z,82
2017-08-25T05:29:26.287Z,81.9
2017-08-25T05:30:22.352Z,81.9
2017-08-25T05:31:18.539Z,82.09
2017-08-25T05:32:08.776Z,81.04
2017-08-25T05:32:49.094Z,81.52
2017-08-25T05:33:29.567Z,80.56
2017-08-25T05:34:09.991Z,80.37
2017-08-25T05:34:50.400Z,80.56
2017-08-25T05:35:30.892Z,80.03
2017-08-25T05:36:11.322Z,79.93
2017-08-25T05:36:51.809Z,80.03
2017-08-25T05:37:32.268Z,79.55
2017-08-25T05:39:53.188Z,78.97
2017-08-25T05:40:33.533Z,79.45
2017-08-25T05:41:13.977Z,78.88
2017-08-25T05:41:54.342Z,79.26
2017-08-25T05:42:34.889Z,78.49
2017-08-25T05:43:15.559Z,78.2
2017-08-25T05:43:55.954Z,78.34
2017-08-25T05:44:36.574Z,78.53
2017-08-25T05:45:17.154Z,78.15
2017-08-25T05:45:57.566Z,78.25
2017-08-25T05:46:38.037Z,77.67
2017-08-25T05:47:18.569Z,77.86
2017-08-25T05:47:58.899Z,77.48
2017-08-25T05:48:39.266Z,77.95
2017-08-25T05:49:19.764Z,77.67
2017-08-25T05:50:00.368Z,77.95
2017-08-25T05:50:40.679Z,77.86
2017-08-25T05:51:21.303Z,78.05
2017-08-25T05:52:01.674Z,77.48
2017-08-25T05:52:42.137Z,77.48
2017-08-25T05:53:22.560Z,77.67
2017-08-25T05:54:02.911Z,77
2017-08-25T05:54:43.294Z,76.75
2017-08-25T05:55:24.045Z,76.65
2017-08-25T05:56:04.651Z,75.89
2017-08-25T05:56:45.035Z,75.89
2017-08-25T05:57:25.629Z,76.07
2017-08-25T05:58:06.093Z,76.52
2017-08-25T05:58:46.498Z,76.62
2017-08-25T05:59:27.023Z,76.42
2017-08-25T06:00:07.376Z,76.32
2017-08-25T06:00:47.848Z,76.62
2017-08-25T06:01:28.481Z,76.71
2017-08-25T06:02:08.970Z,76.04
2017-08-25T06:02:49.379Z,75.95
2017-08-25T06:03:29.808Z,75.95
2017-08-25T06:04:10.266Z,76.52
2017-08-25T06:04:51.226Z,76.84
2017-08-25T06:05:31.555Z,75.89
2017-08-25T06:06:12.220Z,75.98
2017-08-25T06:06:52.942Z,75.89
2017-08-25T06:07:33.314Z,75.6
2017-08-25T06:08:13.749Z,75.4
2017-08-25T06:08:54.114Z,74.64
2017-08-25T06:09:34.577Z,74.68
2017-08-25T06:10:15.823Z,74.01
2017-08-25T06:10:56.533Z,73.43
2017-08-25T06:11:37.662Z,73.08
2017-08-25T06:12:17.989Z,72.69
2017-08-25T06:12:59.413Z,72.02
2017-08-25T06:13:39.356Z,71.39
2017-08-25T06:14:20.338Z,70.52
2017-08-25T06:15:01.139Z,70.23
2017-08-25T06:15:41.594Z,69.95
2017-08-25T06:16:22.109Z,70.14
2017-08-25T06:17:05.411Z,70.04
2017-08-25T06:17:45.057Z,70.14
2017-08-25T06:18:25.470Z,69.95
2017-08-25T06:19:05.934Z,69.95
2017-08-25T06:19:46.415Z,69.75
2017-08-25T06:20:26.852Z,70.14
2017-08-25T06:21:08.549Z,69.37
2017-08-25T06:21:48.570Z,69.02
2017-08-25T06:22:28.972Z,69.31
2017-08-25T06:23:09.475Z,68.92
2017-08-25T06:23:49.966Z,68.35
2017-08-25T06:24:30.295Z,68.54
2017-08-25T06:25:10.651Z,68.54
2017-08-25T06:25:51.232Z,68.83
2017-08-25T06:26:31.583Z,68.44
2017-08-25T06:27:12.671Z,68.83
2017-08-25T06:27:53.111Z,69.5
2017-08-25T06:28:33.753Z,70.07
2017-08-25T06:29:14.166Z,69.98
2017-08-25T06:29:54.592Z,69.79
2017-08-25T06:30:35.047Z,69.46
2017-08-25T06:31:15.538Z,70.07
2017-08-25T06:31:55.907Z,69.69
2017-08-25T06:32:36.460Z,69.4
2017-08-25T06:33:16.789Z,69.21
2017-08-25T06:33:57.221Z,69.31
2017-08-25T06:34:37.644Z,69.12
2017-08-25T06:35:18.135Z,69.12
2017-08-25T06:35:58.422Z,69.21
2017-08-25T06:36:39.002Z,69.21
2017-08-25T06:37:19.315Z,69.02
2017-08-25T06:37:59.754Z,69.31
2017-08-25T06:38:40.303Z,68.92
2017-08-25T06:39:20.678Z,69.12
2017-08-25T06:40:01.047Z,69.02
2017-08-25T06:40:41.817Z,68.92
2017-08-25T06:41:22.406Z,68.83
2017-08-25T06:42:02.864Z,69.02
2017-08-25T06:45:50.722Z,68.44
2017-08-25T06:46:52.253Z,68.63
2017-08-25T06:51:04.325Z,68.44
2017-08-25T06:51:44.543Z,68.63
2017-08-25T06:52:24.900Z,69.02
2017-08-25T06:53:05.407Z,69.21
2017-08-25T06:53:45.888Z,69.31
2017-08-25T06:54:26.300Z,69.31
2017-08-25T06:55:06.964Z,69.4
2017-08-25T06:55:47.680Z,69.4
2017-08-25T06:56:28.098Z,68.67
2017-08-25T06:57:08.438Z,68.38
2017-08-25T06:57:49.011Z,67.8
2017-08-25T06:58:29.694Z,68.29
2017-08-25T07:00:57.415Z,66.49
2017-08-25T07:01:37.923Z,66.01
2017-08-25T07:02:18.377Z,65.72
2017-08-25T07:02:58.780Z,65.72
2017-08-25T07:03:39.291Z,65.91
2017-08-25T07:04:19.712Z,65.53
2017-08-25T07:05:00.266Z,65.37
2017-08-25T07:05:40.870Z,64.5
2017-08-25T07:06:21.297Z,64.34
2017-08-25T07:07:01.641Z,63.76
2017-08-25T07:07:42.169Z,63.76
2017-08-25T07:08:22.553Z,63.12
2017-08-25T07:09:03.511Z,63.02
2017-08-25T07:09:43.922Z,62.54
2017-08-25T07:10:24.295Z,62.25
2017-08-25T07:11:04.763Z,61.58
2017-08-25T07:11:45.198Z,61.99
2017-08-25T07:12:25.612Z,61.51
2017-08-25T07:13:07.674Z,61.1
2017-08-25T07:13:47.549Z,61.68
2017-08-25T07:14:28.801Z,61.77
2017-08-25T07:15:09.004Z,62.25
2017-08-25T07:15:49.436Z,62.54
2017-08-25T07:16:29.887Z,62.83
2017-08-25T07:17:12.035Z,63.5
2017-08-25T07:17:51.811Z,63.21
2017-08-25T07:27:39.982Z,60.86
2017-08-25T07:28:44.483Z,60.48
2017-08-25T07:29:41.945Z,60.68
2017-08-25T07:30:41.752Z,60.1
2017-08-25T07:31:38.540Z,60.68
2017-08-25T07:32:42.687Z,60.28
2017-08-25T07:33:45.811Z,60
2017-08-25T07:34:48.044Z,59.74
2017-08-25T07:35:48.956Z,58.58
2017-08-25T07:36:50.206Z,58.58
2017-08-25T07:38:04.199Z,58.29
2017-08-25T07:39:23.686Z,57.9
2017-08-25T07:40:30.514Z,57.74
2017-08-25T07:41:34.841Z,57.32
2017-08-25T07:42:26.259Z,57.06
2017-08-25T07:43:06.563Z,56.68
2017-08-25T07:43:47.044Z,56.87
2017-08-25T07:44:27.392Z,56.87
2017-08-25T07:45:07.821Z,56.87
2017-08-25T07:45:48.255Z,57.35
2017-08-25T07:46:28.769Z,57.26
2017-08-25T07:47:09.212Z,57.64
2017-08-25T07:47:49.605Z,58.12
2017-08-25T07:48:30.102Z,57.64
2017-08-25T07:49:10.516Z,57.45
2017-08-25T07:49:50.879Z,57.54
2017-08-25T07:50:31.321Z,56.96
2017-08-25T07:51:11.690Z,56.87
2017-08-25T07:51:52.097Z,56.8
2017-08-25T07:52:32.541Z,56.13
2017-08-25T07:53:13.847Z,56.13
2017-08-25T07:53:53.507Z,55.96
2017-08-25T07:54:33.899Z,55.19
2017-08-25T07:55:14.364Z,54.99
2017-08-25T07:55:54.727Z,54.99
2017-08-25T07:56:35.174Z,54.32
2017-08-25T07:57:15.781Z,54.41
2017-08-25T07:57:56.322Z,54.32
2017-08-25T07:58:36.704Z,54.51
2017-08-25T07:59:17.051Z,53.96
2017-08-25T07:59:57.453Z,53.67
2017-08-25T08:00:37.863Z,54.05
2017-08-25T08:01:18.221Z,53.67
2017-08-25T08:01:58.970Z,52.51
2017-08-25T08:02:39.289Z,51.44
2017-08-25T08:03:19.752Z,51.54
2017-08-25T08:04:00.292Z,51.64
2017-08-25T08:04:40.638Z,51.73
2017-08-25T08:05:20.956Z,51.95
2017-08-25T08:06:01.406Z,50.79
2017-08-25T08:06:41.799Z,50.98
2017-08-25T08:07:22.779Z,51.18
2017-08-25T08:08:03.092Z,51.08
2017-08-25T08:08:43.727Z,50.79
2017-08-25T08:09:24.422Z,51.18
2017-08-25T08:10:04.756Z,50.31
2017-08-25T08:10:45.474Z,50.33
2017-08-25T08:11:31.686Z,50.33
2017-08-25T08:12:12.092Z,50.31
2017-08-25T08:12:52.873Z,50.21
2017-08-25T08:13:33.234Z,50.14
2017-08-25T08:14:13.644Z,49.95
2017-08-25T08:14:54.177Z,50.33
2017-08-25T08:15:34.925Z,50.14
2017-08-25T08:16:15.372Z,50.14
2017-08-25T08:16:56.231Z,50.33
2017-08-25T08:17:36.866Z,49.49
2017-08-25T08:18:17.294Z,49.19
2017-08-25T08:18:59.325Z,49.19
2017-08-25T08:19:41.633Z,49.49
2017-08-25T08:20:21.463Z,49.49
2017-08-25T08:21:01.965Z,49.19
2017-08-25T08:21:42.815Z,49.58
2017-08-25T08:22:23.119Z,49.75
2017-08-25T08:23:03.542Z,49.95
2017-08-25T08:23:45.048Z,50.43
2017-08-25T08:24:24.701Z,50.43
2017-08-25T08:25:05.256Z,50.24
2017-08-25T08:25:46.920Z,49.95
2017-08-25T08:26:27.356Z,49.87
2017-08-25T08:27:07.885Z,50.33
2017-08-25T08:27:48.562Z,50.55
2017-08-25T08:28:28.974Z,50.07
2017-08-25T08:29:09.558Z,49.77
2017-08-25T08:29:49.926Z,49.87
2017-08-25T08:30:30.401Z,49.87
2017-08-25T08:31:10.821Z,50.26
2017-08-25T08:31:51.196Z,49.77
2017-08-25T08:32:34.285Z,49.87
2017-08-25T08:33:14.697Z,49.97
2017-08-25T08:33:56.406Z,50.16
2017-08-25T08:34:36.614Z,49.99
2017-08-25T08:35:17.079Z,49.7
2017-08-25T08:35:57.634Z,49.99
2017-08-25T08:36:38.062Z,49.51
2017-08-25T08:37:18.446Z,49.12
2017-08-25T08:37:58.902Z,49.15
2017-08-25T08:38:39.363Z,48.85
2017-08-25T08:39:19.700Z,47.52
2017-08-25T08:40:00.166Z,47.33
2017-08-25T08:40:40.570Z,47.06
2017-08-25T08:41:20.930Z,46.48
2017-08-25T08:42:01.529Z,45.24
2017-08-25T08:42:41.971Z,45.72
2017-08-25T08:43:22.351Z,44.95
2017-08-25T08:44:02.802Z,44.85
2017-08-25T08:44:43.146Z,44.78
2017-08-25T08:45:23.938Z,44.87
2017-08-25T08:46:04.384Z,44.58
2017-08-25T08:48:15.402Z,44.09
2017-08-25T08:52:29.448Z,43.92
2017-08-25T08:53:39.748Z,43.82
2017-08-25T08:54:39.963Z,43.34
2017-08-25T08:56:09.783Z,43.15
2017-08-25T09:00:04.317Z,42.02
2017-08-25T09:02:05.389Z,41.16
2017-08-25T09:03:13.958Z,41.05
2017-08-25T09:04:14.341Z,41.24
2017-08-25T09:05:21.440Z,41.9
2017-08-25T09:06:31.753Z,43.07
2017-08-25T09:10:17.020Z,41.9
2017-08-25T09:10:57.071Z,41.83
2017-08-25T09:11:37.674Z,41.16
2017-08-25T09:12:19.814Z,40.97
2017-08-25T09:13:00.747Z,40.78
2017-08-25T09:13:43.408Z,40.78
2017-08-25T09:14:23.915Z,40.68
2017-08-25T09:15:06.531Z,40.58
2017-08-25T09:15:47.899Z,40
2017-08-25T09:16:28.846Z,39.8
2017-08-25T09:17:10.690Z,40
2017-08-25T09:17:56.336Z,40.09
2017-08-25T09:18:36.866Z,40.48
2017-08-25T09:19:18.267Z,40.27
2017-08-25T09:19:58.723Z,40.95
2017-08-25T09:20:41.411Z,41.73
2017-08-25T09:21:22.109Z,41.73
2017-08-25T09:22:02.625Z,41.73
2017-08-25T09:22:43.018Z,41.83
2017-08-25T09:23:23.424Z,41.53
2017-08-25T09:24:06.417Z,41.44
2017-08-25T09:24:46.579Z,40.85
2017-08-25T09:25:27.242Z,40.58
2017-08-25T09:26:07.732Z,40.48
2017-08-25T09:26:48.592Z,40
2017-08-25T09:27:29.094Z,40.01
2017-08-25T09:28:10.134Z,39.62
2017-08-25T09:28:50.654Z,38.57
2017-08-25T09:29:33.251Z,37.99
2017-08-25T09:30:13.599Z,37.79
2017-08-25T09:30:54.967Z,37.71
2017-08-25T09:31:35.448Z,37.43
2017-08-25T09:32:16.841Z,37.23
2017-08-25T09:32:57.277Z,37.33
2017-08-25T09:33:37.826Z,36.66
2017-08-25T09:34:19.176Z,36.57
2017-08-25T09:34:59.585Z,36.47
2017-08-25T09:35:40.021Z,36.39
2017-08-25T09:36:20.576Z,35.8
2017-08-25T09:37:00.969Z,35.9
2017-08-25T09:37:41.374Z,35.71
2017-08-25T09:38:22.732Z,35.51
2017-08-25T09:39:03.213Z,35.02
2017-08-25T09:39:43.592Z,34.84
2017-08-25T09:40:24.008Z,34.57
2017-08-25T09:41:05.887Z,34.47
2017-08-25T09:41:46.367Z,34.18
2017-08-25T09:42:27.279Z,34.38
2017-08-25T09:43:07.523Z,34.36
2017-08-25T09:43:47.911Z,34.36
2017-08-25T09:44:28.422Z,34.47
2017-08-25T09:45:09.019Z,34.47
2017-08-25T09:45:49.451Z,34.47
2017-08-25T09:46:30.020Z,34.18
2017-08-25T09:47:10.458Z,34.28
2017-08-25T09:47:52.376Z,33.89
2017-08-25T09:48:32.726Z,34.08
2017-08-25T09:49:13.377Z,34.36
2017-08-25T09:49:53.805Z,34.38
2017-08-25T09:50:34.506Z,34.18
2017-08-25T09:51:14.999Z,34.08
2017-08-25T09:51:56.940Z,33.69
2017-08-25T09:52:38.657Z,33.59
2017-08-25T09:53:19.831Z,33.61
2017-08-25T09:54:00.331Z,33.51
2017-08-25T09:54:40.791Z,33.02
2017-08-25T09:55:22.681Z,33.31
2017-08-25T09:56:03.266Z,33.41
2017-08-25T09:56:44.644Z,32.55
2017-08-25T09:57:26.967Z,32.16
2017-08-25T09:58:09.466Z,32.26
2017-08-25T09:58:49.676Z,32.27
2017-08-25T09:59:30.803Z,32.16
2017-08-25T10:00:11.872Z,32.06
2017-08-25T10:00:52.942Z,32.35
2017-08-25T10:01:33.194Z,32.45
2017-08-25T10:02:14.464Z,32.73
2017-08-25T10:02:55.224Z,33.3
2017-08-25T10:03:35.676Z,33.3
2017-08-25T10:08:39.685Z,34.45
2017-08-25T10:12:18.479Z,33.67
2017-08-25T10:15:02.467Z,32.71
2017-08-25T10:15:42.921Z,32.52
2017-08-25T10:27:37.628Z,31.75
2017-08-25T10:28:20.693Z,31.65
2017-08-25T10:29:02.590Z,31.85
2017-08-25T10:29:43.112Z,31.28
2017-08-25T10:30:24.485Z,30.88
2017-08-25T10:31:05.137Z,30.71
2017-08-25T10:31:45.750Z,30.12
2017-08-25T10:32:26.141Z,30.71
2017-08-25T10:34:24.033Z,29.22
2017-08-25T10:35:06.477Z,29.31
2017-08-25T10:35:46.940Z,29.8
2017-08-25T10:36:27.635Z,30.76
2017-08-25T10:37:08.463Z,31.6
2017-08-25T10:37:48.582Z,33.26
2017-08-25T10:38:29.067Z,34.14
2017-08-25T10:39:09.555Z,34.44
2017-08-25T10:39:50.517Z,34.44
2017-08-25T10:40:31.642Z,34.24
2017-08-25T10:41:12.029Z,34.05
2017-08-25T10:41:52.422Z,33.48
2017-08-25T10:42:32.917Z,32.99
2017-08-25T10:43:13.446Z,33.01
2017-08-25T10:43:53.887Z,32.4
2017-08-25T10:45:58.626Z,32.5
2017-08-25T10:46:42.052Z,32.28
2017-08-25T10:47:22.599Z,32.94
2017-08-25T10:48:03.202Z,34.19
2017-08-25T10:51:26.533Z,34.31